Time;durP1;ratioP1;P1;durP2;ratioP2;P2;SDS_P1;SDS_P2;PMS_P1;PMS_P2;Temp;Humidity;BMP_temperature;BMP_pressure;BME280_temperature;BME280_humidity;BME280_pressure;Samples;Min_cycle;Max_cycle;Signal;HPM_P1;HPM_P2
2021/11/17 02:25:43;;;;;;;39.33;22.63;;;15.70;76.70;;;;;;4269217;27;20035;-74
2021/11/17 02:27:53;;;;;;;;;;;15.70;76.70;;;;;;4273018;27;20242;-74
2021/11/17 02:30:10;;;;;;;;;;;15.70;76.80;;;;;;4270621;27;20130;-74
2021/11/17 02:32:29;;;;;;;39.00;23.30;;;15.70;76.80;;;;;;4264696;27;19923;-74
2021/11/17 02:34:45;;;;;;;37.97;22.25;;;15.70;76.80;;;;;;4263190;27;20047;-74
2021/11/17 02:37:14;;;;;;;38.63;22.30;;;15.60;76.70;;;;;;4240654;28;20039;-74
2021/11/17 02:39:30;;;;;;;38.05;22.25;;;15.60;76.70;;;;;;4240008;28;20229;-74
2021/11/17 02:42:02;;;;;;;40.45;23.60;;;15.60;76.70;;;;;;4243643;27;20055;-73
2021/11/17 02:44:19;;;;;;;37.53;21.45;;;15.60;76.80;;;;;;4274186;27;20054;-73
2021/11/17 02:46:43;;;;;;;38.78;22.13;;;15.60;76.70;;;;;;4263106;27;20047;-74
2021/11/17 02:49:01;;;;;;;36.60;22.35;;;15.60;76.80;;;;;;4239985;28;20048;-74
2021/11/17 02:51:26;;;;;;;40.47;22.98;;;15.60;77.40;;;;;;4237280;27;20259;-73
2021/11/17 02:53:42;;;;;;;40.60;23.48;;;15.60;76.90;;;;;;4271868;27;20046;-73
2021/11/17 02:56:09;;;;;;;37.65;22.27;;;15.60;76.80;;;;;;4271081;27;20035;-73
2021/11/17 02:58:33;;;;;;;43.10;24.67;;;15.60;76.90;;;;;;4264068;27;20059;-73
2021/11/17 03:01:21;;;;;;;37.58;22.33;;;15.60;77.00;;;;;;4254157;27;20043;-73
2021/11/17 03:03:39;;;;;;;39.53;23.13;;;15.60;77.00;;;;;;4179414;28;20063;-73
2021/11/17 03:05:54;;;;;;;40.10;23.50;;;15.60;77.00;;;;;;4244522;27;20042;-74
2021/11/17 03:08:18;;;;;;;36.42;21.85;;;15.60;77.00;;;;;;4251296;27;20050;-74
2021/11/17 03:10:52;;;;;;;41.03;24.13;;;15.60;77.00;;;;;;4272801;27;20115;-73
2021/11/17 03:13:21;;;;;;;39.90;23.95;;;15.50;77.00;;;;;;4265926;27;20212;-74
2021/11/17 03:15:47;;;;;;;36.55;22.45;;;15.60;77.10;;;;;;4256629;27;20042;-73
2021/11/17 03:18:03;;;;;;;36.90;23.23;;;15.50;77.00;;;;;;4264402;27;20069;-73
2021/11/17 03:20:34;;;;;;;32.95;21.15;;;15.50;77.10;;;;;;4257382;27;20408;-74
2021/11/17 03:22:53;;;;;;;36.95;22.08;;;15.50;77.10;;;;;;4269207;27;20038;-74
2021/11/17 03:25:11;;;;;;;37.92;23.40;;;15.50;77.10;;;;;;4239932;28;20035;-74
2021/11/17 03:27:26;;;;;;;33.35;21.13;;;15.50;77.20;;;;;;4254682;27;20350;-73
2021/11/17 03:30:03;;;;;;;36.92;22.60;;;15.50;77.10;;;;;;4269112;27;20062;-73
2021/11/17 03:32:35;;;;;;;38.92;22.55;;;15.50;77.10;;;;;;4268194;27;20043;-73
2021/11/17 03:35:11;;;;;;;37.30;22.70;;;15.50;77.20;;;;;;4268255;27;20395;-73
2021/11/17 03:37:40;;;;;;;35.53;22.35;;;15.50;77.20;;;;;;4262362;27;20060;-74
2021/11/17 03:40:14;;;;;;;36.72;22.25;;;15.50;77.20;;;;;;4267663;27;20054;-73
2021/11/17 03:42:52;;;;;;;36.28;22.52;;;15.40;77.20;;;;;;4253396;27;20254;-74
2021/11/17 03:45:30;;;;;;;37.30;22.48;;;15.40;77.30;;;;;;4251178;27;20064;-73
2021/11/17 03:47:45;;;;;;;36.28;22.15;;;15.40;77.30;;;;;;4251409;27;20039;-74
2021/11/17 03:50:10;;;;;;;34.97;21.52;;;15.40;77.30;;;;;;4266266;27;20243;-74
2021/11/17 03:52:41;;;;;;;35.30;22.27;;;15.50;77.40;;;;;;4271791;27;20042;-74
2021/11/17 03:55:07;;;;;;;34.78;21.48;;;15.40;77.40;;;;;;4236856;28;20047;-73
2021/11/17 03:57:25;;;;;;;35.03;22.25;;;15.40;77.40;;;;;;4250050;27;20047;-74
2021/11/17 03:59:44;;;;;;;35.90;22.25;;;15.40;77.40;;;;;;4265863;27;20061;-73
2021/11/17 04:02:03;;;;;;;37.70;22.70;;;15.40;77.50;;;;;;4255763;27;20067;-73
2021/11/17 04:04:24;;;;;;;32.85;20.92;;;15.40;77.50;;;;;;4256114;27;20043;-74
2021/11/17 04:06:42;;;;;;;35.53;22.38;;;15.40;77.50;;;;;;4239241;28;20235;-73
2021/11/17 04:08:58;;;;;;;34.08;21.63;;;15.40;77.50;;;;;;4259761;27;20049;-74
2021/11/17 04:11:15;;;;;;;33.22;20.95;;;15.40;77.50;;;;;;4259221;27;20047;-73
2021/11/17 04:13:29;;;;;;;35.35;22.25;;;15.40;77.60;;;;;;4260685;27;20042;-74
2021/11/17 04:15:56;;;;;;;32.38;21.42;;;15.40;77.60;;;;;;4245960;27;20243;-73
2021/11/17 04:18:10;;;;;;;35.17;21.23;;;15.30;77.60;;;;;;4253504;27;20051;-74
2021/11/17 04:20:28;;;;;;;34.10;21.20;;;15.40;77.70;;;;;;4243068;27;20051;-73
2021/11/17 04:22:47;;;;;;;32.65;21.52;;;15.40;77.80;;;;;;4272884;27;20057;-74
2021/11/17 04:25:07;;;;;;;32.65;21.15;;;15.30;77.60;;;;;;4259895;27;20243;-73
2021/11/17 04:27:32;;;;;;;32.20;21.55;;;15.30;77.70;;;;;;4238395;28;20054;-73
2021/11/17 04:29:53;;;;;;;;;;;15.30;77.70;;;;;;4238928;27;20064;-73
2021/11/17 04:32:26;;;;;;;33.25;20.95;;;15.30;77.70;;;;;;4271677;27;19923;-73
2021/11/17 04:34:51;;;;;;;31.17;20.75;;;15.30;77.80;;;;;;4264022;27;20061;-73
2021/11/17 04:37:15;;;;;;;31.83;20.77;;;15.30;77.80;;;;;;4251902;27;20645;-74
2021/11/17 04:39:41;;;;;;;32.53;20.33;;;15.30;77.80;;;;;;4268247;27;20057;-74
2021/11/17 04:42:13;;;;;;;33.20;20.38;;;15.30;77.80;;;;;;4266659;27;20062;-73
2021/11/17 04:44:43;;;;;;;35.47;21.15;;;15.30;77.80;;;;;;4253774;27;20047;-73
2021/11/17 04:47:03;;;;;;;31.90;20.63;;;15.30;77.90;;;;;;4244514;28;20044;-74
2021/11/17 04:49:20;;;;;;;30.48;20.10;;;15.30;77.90;;;;;;4257409;27;20122;-73
2021/11/17 04:51:47;;;;;;;31.05;20.38;;;15.30;77.90;;;;;;4248091;27;20035;-73
2021/11/17 04:54:08;;;;;;;33.45;20.27;;;15.20;77.90;;;;;;4260515;27;20053;-73
2021/11/17 04:56:25;;;;;;;33.83;20.65;;;15.30;78.00;;;;;;4264104;27;20043;-74
2021/11/17 04:58:41;;;;;;;30.13;20.45;;;15.30;77.90;;;;;;4255440;27;20076;-74
2021/11/17 05:01:20;;;;;;;30.15;19.98;;;15.30;78.00;;;;;;4265137;27;20352;-73
2021/11/17 05:03:37;;;;;;;31.52;20.65;;;15.30;78.00;;;;;;4254424;27;20058;-74
2021/11/17 05:06:08;;;;;;;33.05;20.05;;;15.30;78.00;;;;;;4263668;27;20043;-74
2021/11/17 05:08:20;;;;;;;33.20;20.98;;;15.30;78.00;;;;;;4256902;27;20050;-73
2021/11/17 05:10:37;;;;;;;30.60;19.88;;;15.20;78.00;;;;;;4260534;27;20051;-74
2021/11/17 05:12:54;;;;;;;31.92;19.13;;;15.30;78.10;;;;;;4263183;27;20047;-74
2021/11/17 05:15:06;;;;;;;30.02;19.85;;;15.30;78.10;;;;;;4257709;27;20250;-73
2021/11/17 05:17:21;;;;;;;27.52;18.48;;;15.20;78.10;;;;;;4270547;27;20045;-74
2021/11/17 05:19:34;;;;;;;29.73;19.50;;;15.20;78.20;;;;;;4258879;27;20055;-73
2021/11/17 05:21:51;;;;;;;30.10;20.00;;;15.20;78.20;;;;;;4270226;27;20053;-74
2021/11/17 05:24:08;;;;;;;29.80;18.98;;;15.20;78.20;;;;;;4241449;28;20170;-74
2021/11/17 05:26:23;;;;;;;30.20;20.30;;;15.20;78.30;;;;;;4240493;27;20042;-73
2021/11/17 05:28:43;;;;;;;29.15;19.55;;;15.20;78.20;;;;;;4244652;27;20141;-73
2021/11/17 05:31:07;;;;;;;30.20;19.27;;;15.20;78.30;;;;;;4259621;27;20100;-73
2021/11/17 05:33:23;;;;;;;28.65;19.13;;;15.20;78.30;;;;;;4265896;27;20080;-74
2021/11/17 05:35:33;;;;;;;;;;;15.20;78.40;;;;;;4259121;27;20340;-73
2021/11/17 05:37:45;;;;;;;28.13;18.08;;;15.10;78.40;;;;;;4267174;27;19919;-73
2021/11/17 05:40:03;;;;;;;28.35;18.42;;;15.20;78.50;;;;;;4259254;27;20055;-74
2021/11/17 05:42:20;;;;;;;26.20;18.05;;;15.20;78.60;;;;;;4269103;27;20066;-73
2021/11/17 05:44:35;;;;;;;31.30;19.67;;;15.10;78.50;;;;;;4258813;27;20043;-74
2021/11/17 05:46:52;;;;;;;25.90;17.70;;;15.20;78.60;;;;;;4262085;27;20043;-72
2021/11/17 05:49:06;;;;;;;26.13;17.77;;;15.20;78.50;;;;;;4263230;27;20047;-73
2021/11/17 05:51:25;;;;;;;26.07;17.83;;;15.10;78.50;;;;;;4259239;27;20039;-73
2021/11/17 05:53:42;;;;;;;25.13;17.08;;;15.10;78.50;;;;;;4263459;27;20039;-74
2021/11/17 05:56:07;;;;;;;26.58;18.23;;;15.10;78.50;;;;;;4274536;27;20065;-74
2021/11/17 05:58:23;;;;;;;27.40;18.92;;;15.20;78.80;;;;;;4266574;27;20042;-73
2021/11/17 06:00:39;;;;;;;26.00;17.92;;;15.20;78.70;;;;;;4257848;27;20068;-73
2021/11/17 06:03:08;;;;;;;24.63;16.15;;;15.20;78.60;;;;;;4264680;27;20067;-74
2021/11/17 06:05:11;;;;;;;25.67;17.42;;;15.10;78.60;;;;;;4256084;27;20049;-73
2021/11/17 06:07:14;;;;;;;26.23;17.63;;;15.20;78.70;;;;;;4261203;27;20372;-73
2021/11/17 06:09:17;;;;;;;25.23;16.90;;;15.20;78.70;;;;;;4266304;27;20069;-73
2021/11/17 06:11:25;;;;;;;24.05;16.33;;;15.10;78.60;;;;;;4257555;27;20090;-73
2021/11/17 06:13:30;;;;;;;24.00;16.60;;;15.10;78.70;;;;;;4269844;27;20058;-74
2021/11/17 06:15:34;;;;;;;25.00;17.15;;;15.10;78.70;;;;;;4257407;27;20101;-74
2021/11/17 06:17:37;;;;;;;23.92;16.27;;;15.10;78.80;;;;;;4261460;27;20078;-73
2021/11/17 06:19:42;;;;;;;24.65;16.30;;;15.20;78.80;;;;;;4265709;27;20059;-73
2021/11/17 06:21:46;;;;;;;23.98;16.92;;;15.10;78.80;;;;;;4257379;27;20043;-73
2021/11/17 06:23:53;;;;;;;24.58;16.25;;;15.20;78.90;;;;;;4261619;27;20074;-73
2021/11/17 06:25:57;;;;;;;22.27;15.98;;;15.10;78.90;;;;;;4241110;28;20054;-73
2021/11/17 06:28:04;;;;;;;21.15;15.18;;;15.20;79.00;;;;;;4254401;27;20103;-73
2021/11/17 06:30:10;;;;;;;23.65;16.10;;;15.10;78.90;;;;;;4274958;27;20047;-74
2021/11/17 06:32:14;;;;;;;23.48;15.90;;;15.10;78.80;;;;;;4273858;27;20050;-74
2021/11/17 06:34:33;;;;;;;22.92;15.90;;;15.20;79.00;;;;;;4247751;27;20467;-73
2021/11/17 06:36:36;;;;;;;21.77;15.13;;;15.10;79.20;;;;;;4274340;27;20046;-73
2021/11/17 06:38:39;;;;;;;22.55;14.52;;;15.10;79.00;;;;;;4266751;27;20088;-74
2021/11/17 06:40:45;;;;;;;24.30;15.88;;;15.10;79.00;;;;;;4268330;27;20056;-74
2021/11/17 06:42:50;;;;;;;24.98;16.17;;;15.10;79.10;;;;;;4271829;27;20054;-74
2021/11/17 06:44:55;;;;;;;;;;;15.10;79.00;;;;;;4262110;27;20051;-73
2021/11/17 06:46:58;;;;;;;21.90;15.43;;;15.10;79.00;;;;;;4274189;27;19919;-73
2021/11/17 06:49:01;;;;;;;19.02;14.32;;;15.10;79.10;;;;;;4266616;27;20051;-73
2021/11/17 06:51:04;;;;;;;21.77;15.18;;;15.10;79.00;;;;;;4268459;27;20043;-74
2021/11/17 06:53:08;;;;;;;23.00;15.27;;;15.10;79.00;;;;;;4272490;27;20052;-74
2021/11/17 06:55:11;;;;;;;20.52;14.70;;;15.10;79.00;;;;;;4262149;27;20047;-73
2021/11/17 06:57:15;;;;;;;22.58;15.32;;;15.10;79.00;;;;;;4262492;27;20050;-73
2021/11/17 06:59:19;;;;;;;22.98;15.07;;;15.10;79.00;;;;;;4263146;27;20455;-74
2021/11/17 07:01:24;;;;;;;22.70;15.27;;;15.10;79.20;;;;;;4262492;27;20064;-74
2021/11/17 07:03:29;;;;;;;23.42;15.77;;;15.10;79.10;;;;;;4256715;27;20080;-73
2021/11/17 07:05:32;;;;;;;19.98;14.13;;;15.10;79.40;;;;;;4261938;27;20055;-74
2021/11/17 07:07:35;;;;;;;23.75;15.75;;;15.10;79.20;;;;;;4273830;27;20096;-74
2021/11/17 07:09:38;;;;;;;20.10;14.07;;;15.10;79.30;;;;;;4267111;27;20047;-73
2021/11/17 07:11:41;;;;;;;20.42;13.77;;;15.10;79.30;;;;;;4267561;27;20280;-74
2021/11/17 07:13:44;;;;;;;21.15;14.73;;;15.10;79.30;;;;;;4272129;27;20054;-74
2021/11/17 07:15:47;;;;;;;19.27;13.98;;;15.10;79.40;;;;;;4264600;27;20055;-73
2021/11/17 07:17:52;;;;;;;21.67;14.43;;;15.10;79.30;;;;;;4256171;27;20051;-73
2021/11/17 07:19:55;;;;;;;20.30;13.57;;;15.10;79.30;;;;;;4239483;27;20118;-73
2021/11/17 07:22:01;;;;;;;20.63;13.80;;;15.10;79.20;;;;;;4266691;27;20043;-73
2021/11/17 07:24:05;;;;;;;19.30;14.13;;;15.10;79.30;;;;;;4272160;27;20074;-74
2021/11/17 07:26:08;;;;;;;19.75;13.73;;;15.10;79.40;;;;;;4264029;27;20057;-73
2021/11/17 07:28:11;;;;;;;19.15;13.07;;;15.10;79.40;;;;;;4255418;27;20311;-74
2021/11/17 07:30:20;;;;;;;21.00;13.63;;;15.00;79.30;;;;;;4261867;27;20060;-73
2021/11/17 07:32:24;;;;;;;21.10;13.77;;;15.10;79.50;;;;;;4261840;27;20274;-74
2021/11/17 07:34:29;;;;;;;20.42;13.60;;;15.00;79.40;;;;;;4260833;27;20368;-73
2021/11/17 07:36:32;;;;;;;18.10;13.05;;;15.00;79.40;;;;;;4261132;27;20276;-73
2021/11/17 07:38:36;;;;;;;19.10;13.07;;;15.00;79.50;;;;;;4272495;27;20050;-73
2021/11/17 07:40:42;;;;;;;20.30;14.10;;;15.00;79.50;;;;;;4266601;27;20417;-73
2021/11/17 07:42:46;;;;;;;19.23;12.90;;;15.00;79.50;;;;;;4267493;27;20047;-73
2021/11/17 07:44:51;;;;;;;19.00;12.93;;;15.00;79.50;;;;;;4271640;27;20053;-73
2021/11/17 07:46:57;;;;;;;;;;;15.00;79.60;;;;;;4262053;27;20051;-74
2021/11/17 07:49:00;;;;;;;14.60;9.87;;;15.00;79.60;;;;;;4272977;27;19919;-74
2021/11/17 07:51:05;;;;;;;20.08;13.35;;;15.00;79.70;;;;;;4265534;27;20471;-74
2021/11/17 07:53:10;;;;;;;19.83;13.30;;;15.00;79.80;;;;;;4267423;27;20057;-74
2021/11/17 07:55:16;;;;;;;17.15;12.35;;;15.00;79.90;;;;;;4270261;27;20055;-74
2021/11/17 07:57:19;;;;;;;19.75;13.68;;;15.00;79.70;;;;;;4260018;27;20062;-74
2021/11/17 07:59:25;;;;;;;17.88;12.75;;;15.00;79.70;;;;;;4272362;27;20045;-74
2021/11/17 08:01:29;;;;;;;17.65;12.68;;;15.00;79.80;;;;;;4265376;27;20307;-74
2021/11/17 08:03:35;;;;;;;18.17;12.50;;;15.00;79.70;;;;;;4262027;27;20396;-75
2021/11/17 08:05:40;;;;;;;19.23;12.68;;;15.00;79.60;;;;;;4239022;27;20040;-75
2021/11/17 08:07:44;;;;;;;19.40;13.65;;;15.00;79.70;;;;;;4267388;27;20157;-76
2021/11/17 08:09:49;;;;;;;19.67;13.70;;;15.00;79.80;;;;;;4237346;28;20089;-72
2021/11/17 08:11:52;;;;;;;24.48;15.25;;;15.10;80.20;;;;;;4263230;27;20084;-72
2021/11/17 08:13:56;;;;;;;24.48;14.25;;;15.10;81.50;;;;;;4259726;27;20043;-72
2021/11/17 08:15:59;;;;;;;26.95;13.70;;;15.10;80.60;;;;;;4256658;27;20062;-72
2021/11/17 08:18:02;;;;;;;29.38;16.85;;;15.10;80.90;;;;;;4267073;27;20092;-73
2021/11/17 08:20:10;;;;;;;28.38;14.40;;;15.10;81.40;;;;;;4256140;27;20104;-73
2021/11/17 08:22:17;;;;;;;32.95;15.55;;;15.10;81.50;;;;;;4264384;27;20047;-74
2021/11/17 08:24:21;;;;;;;36.00;16.85;;;15.10;81.90;;;;;;4260363;27;20343;-74
2021/11/17 08:26:25;;;;;;;42.78;19.17;;;15.10;82.40;;;;;;4239555;28;20269;-74
2021/11/17 08:28:28;;;;;;;40.50;19.95;;;15.20;83.50;;;;;;4266541;27;20058;-76
2021/11/17 08:30:33;;;;;;;42.75;19.42;;;15.20;83.90;;;;;;4255578;27;20091;-75
2021/11/17 08:32:37;;;;;;;47.38;18.75;;;15.20;84.20;;;;;;4263419;27;20062;-74
2021/11/17 08:34:40;;;;;;;59.15;20.75;;;15.20;83.90;;;;;;4259398;27;20057;-73
2021/11/17 08:36:43;;;;;;;47.55;20.17;;;15.30;84.50;;;;;;4256821;27;20043;-75
2021/11/17 08:38:50;;;;;;;46.15;20.52;;;15.30;85.40;;;;;;4267130;27;20500;-71
2021/11/17 08:40:58;;;;;;;43.83;19.42;;;15.30;86.20;;;;;;4255772;28;20095;-74
2021/11/17 08:43:02;;;;;;;36.75;18.67;;;15.30;85.20;;;;;;4257341;27;20043;-75
2021/11/17 08:45:07;;;;;;;35.80;20.77;;;15.30;85.30;;;;;;4270503;27;20098;-72
2021/11/17 08:47:13;;;;;;;40.70;21.05;;;15.30;85.20;;;;;;4270070;27;20050;-73
2021/11/17 08:49:16;;;;;;;38.95;20.75;;;15.40;85.20;;;;;;4267245;27;20043;-75
2021/11/17 08:51:20;;;;;;;35.78;20.88;;;15.40;85.20;;;;;;4259297;27;20054;-74
2021/11/17 08:53:25;;;;;;;36.22;20.13;;;15.40;85.20;;;;;;4259226;27;20061;-74
2021/11/17 08:55:31;;;;;;;37.80;21.25;;;15.40;85.90;;;;;;4268849;27;20207;-75
2021/11/17 08:57:36;;;;;;;38.65;23.02;;;15.40;86.40;;;;;;4253205;27;20047;-75
2021/11/17 08:59:39;;;;;;;41.78;22.48;;;15.40;86.60;;;;;;4253412;27;20043;-74
2021/11/17 09:01:42;;;;;;;36.00;21.02;;;15.40;86.80;;;;;;4238083;28;20350;-75
2021/11/17 09:03:45;;;;;;;41.55;20.33;;;15.40;86.60;;;;;;4254293;27;20051;-74
2021/11/17 09:05:51;;;;;;;36.38;20.95;;;15.50;86.30;;;;;;4252010;27;20332;-74
2021/11/17 09:07:58;;;;;;;36.75;20.67;;;15.40;86.50;;;;;;4254880;27;20053;-76
2021/11/17 09:10:06;;;;;;;34.38;20.83;;;15.40;86.60;;;;;;4256138;27;20055;-76
2021/11/17 09:12:12;;;;;;;33.65;19.88;;;15.40;86.50;;;;;;4215636;28;20047;-73
2021/11/17 09:14:17;;;;;;;40.80;21.38;;;15.50;86.40;;;;;;4257586;27;20374;-73
2021/11/17 09:16:29;;;;;;;35.70;20.77;;;15.40;86.40;;;;;;4273482;27;20042;-74
2021/11/17 09:18:36;;;;;;;37.80;20.27;;;15.50;86.60;;;;;;4272988;27;20050;-75
2021/11/17 09:20:39;;;;;;;38.28;21.45;;;15.50;86.70;;;;;;4270579;27;20268;-72
2021/11/17 09:22:43;;;;;;;32.15;20.77;;;15.50;86.70;;;;;;4258449;27;20244;-71
2021/11/17 09:24:46;;;;;;;35.35;20.95;;;15.50;86.80;;;;;;4253823;27;20173;-74
2021/11/17 09:26:50;;;;;;;32.72;19.30;;;15.50;86.70;;;;;;4274990;27;20057;-73
2021/11/17 09:28:56;;;;;;;35.90;19.90;;;15.50;86.60;;;;;;4271694;27;20046;-71
2021/11/17 09:31:02;;;;;;;37.15;21.05;;;15.60;86.70;;;;;;4255338;27;20043;-72
2021/11/17 09:33:11;;;;;;;34.90;20.63;;;15.60;87.00;;;;;;4242277;27;20059;-73
2021/11/17 09:35:15;;;;;;;35.30;20.25;;;15.60;87.50;;;;;;4255375;27;20058;-72
2021/11/17 09:37:23;;;;;;;34.87;20.20;;;15.60;87.80;;;;;;4249403;27;20365;-74
2021/11/17 09:39:27;;;;;;;34.33;20.13;;;15.60;87.70;;;;;;4260203;27;20111;-74
2021/11/17 09:41:34;;;;;;;31.15;18.42;;;15.60;87.50;;;;;;4262074;27;20048;-73
2021/11/17 09:43:41;;;;;;;40.13;20.85;;;15.70;87.40;;;;;;4229150;27;20040;-70
2021/11/17 09:45:46;;;;;;;31.55;19.67;;;15.70;87.40;;;;;;4257209;27;20044;-73
2021/11/17 09:47:53;;;;;;;37.95;20.95;;;15.70;87.30;;;;;;4257566;27;20051;-72
2021/11/17 09:50:11;;;;;;;32.42;20.60;;;15.70;87.10;;;;;;4264059;27;20118;-68
2021/11/17 09:52:18;;;;;;;33.47;20.90;;;15.70;87.10;;;;;;4261932;27;20106;-74
2021/11/17 09:54:37;;;;;;;31.15;18.98;;;15.70;87.10;;;;;;4258950;27;20419;-72
2021/11/17 09:56:44;;;;;;;29.92;18.95;;;15.70;87.00;;;;;;4247745;27;20110;-75
2021/11/17 09:58:52;;;;;;;30.35;19.17;;;15.80;87.10;;;;;;4257544;27;20047;-74
2021/11/17 10:00:59;;;;;;;30.77;18.83;;;15.70;87.00;;;;;;4268804;27;20057;-74
2021/11/17 10:03:08;;;;;;;32.47;19.52;;;15.80;87.00;;;;;;4257612;27;20072;-70
2021/11/17 10:05:16;;;;;;;32.47;18.60;;;15.80;87.00;;;;;;4259927;27;20050;-73
2021/11/17 10:13:07;;;;;;;33.42;19.10;;;15.80;87.00;;;;;;4178993;28;20057;-70
2021/11/17 10:14:55;;;;;;;28.52;18.88;;;15.80;86.90;;;;;;4169874;28;20053;-72
2021/11/17 10:17:36;;;;;;;29.38;19.13;;;15.80;87.00;;;;;;4201525;28;20040;-68
2021/11/17 10:20:10;;;;;;;30.88;18.98;;;15.80;87.00;;;;;;4188752;28;20095;-75
2021/11/17 10:22:25;;;;;;;28.38;18.75;;;15.80;87.10;;;;;;4198243;28;20052;-72
2021/11/17 10:24:45;;;;;;;27.48;17.65;;;15.90;87.10;;;;;;4194872;28;20119;-68
2021/11/17 10:27:03;;;;;;;33.42;18.10;;;15.90;87.10;;;;;;4202459;28;20049;-71
2021/11/17 10:29:31;;;;;;;26.17;17.70;;;15.90;87.00;;;;;;4200002;28;20240;-69
2021/11/17 10:31:52;;;;;;;28.38;17.58;;;15.90;86.90;;;;;;4185658;28;20063;-71
2021/11/17 10:34:28;;;;;;;32.65;18.40;;;15.90;87.00;;;;;;4190554;28;20048;-72
2021/11/17 10:36:55;;;;;;;28.85;17.63;;;15.90;87.00;;;;;;4195028;28;20045;-69
2021/11/17 10:39:17;;;;;;;27.17;17.65;;;15.90;87.00;;;;;;4199041;28;20048;-76
2021/11/17 10:41:30;;;;;;;30.88;18.25;;;15.90;87.50;;;;;;4197355;28;21191;-72
2021/11/17 10:43:55;;;;;;;30.17;17.13;;;16.00;87.00;;;;;;4200405;28;20237;-72
2021/11/17 10:46:07;;;;;;;27.23;17.10;;;16.00;87.10;;;;;;4204077;28;20041;-68
2021/11/17 10:48:21;;;;;;;27.95;17.65;;;16.00;87.00;;;;;;4196132;28;20037;-69
2021/11/17 10:50:31;;;;;;;24.70;16.95;;;16.00;87.00;;;;;;4201692;28;20041;-70
2021/11/17 10:52:47;;;;;;;26.08;16.33;;;16.00;87.60;;;;;;4194607;28;20053;-69
2021/11/17 10:54:58;;;;;;;30.50;16.65;;;16.00;87.60;;;;;;4188962;28;20047;-69
2021/11/17 10:57:09;;;;;;;28.67;18.08;;;16.00;88.00;;;;;;4196746;28;20051;-68
2021/11/17 10:59:14;;;;;;;29.33;18.02;;;16.00;87.90;;;;;;4210213;28;20052;-73
2021/11/17 11:01:22;;;;;;;26.00;17.38;;;16.00;87.90;;;;;;4205481;28;20044;-68
2021/11/17 11:03:34;;;;;;;27.75;17.02;;;16.00;87.80;;;;;;4192639;28;20049;-75
2021/11/17 11:05:41;;;;;;;24.55;16.35;;;16.10;87.80;;;;;;4206005;28;20059;-67
2021/11/17 11:07:53;;;;;;;29.52;16.60;;;16.10;87.90;;;;;;4201246;28;20059;-72
2021/11/17 11:10:00;;;;;;;24.13;15.60;;;16.10;87.80;;;;;;4205197;28;20060;-68
2021/11/17 11:12:05;;;;;;;26.00;15.52;;;16.10;87.80;;;;;;4219271;28;20054;-67
2021/11/17 11:14:19;;;;;;;27.40;16.42;;;16.20;87.80;;;;;;4193425;28;20044;-75
2021/11/17 11:16:28;;;;;;;29.48;15.75;;;16.20;87.80;;;;;;4204378;28;20053;-71
2021/11/17 11:18:39;;;;;;;26.08;16.00;;;16.20;87.80;;;;;;4193662;28;20068;-70
2021/11/17 11:20:46;;;;;;;23.38;15.93;;;16.20;87.80;;;;;;4188341;28;20053;-73
2021/11/17 11:23:28;;;;;;;24.88;15.20;;;16.20;87.80;;;;;;4198088;28;20055;-68
2021/11/17 11:25:42;;;;;;;24.23;14.52;;;16.20;87.70;;;;;;4180999;28;20263;-71
2021/11/17 11:28:24;;;;;;;24.23;15.13;;;16.20;87.70;;;;;;4200579;28;20044;-75
2021/11/17 11:30:36;;;;;;;23.00;14.55;;;16.20;87.70;;;;;;4196478;28;20053;-69
2021/11/17 11:32:45;;;;;;;21.13;14.73;;;16.20;87.70;;;;;;4199708;28;20129;-70
2021/11/17 11:35:16;;;;;;;21.27;14.18;;;16.30;87.70;;;;;;4203395;28;20247;-76
2021/11/17 11:37:57;;;;;;;25.25;14.23;;;16.30;87.60;;;;;;4205175;28;20056;-71
2021/11/17 11:40:10;;;;;;;23.08;14.02;;;16.30;87.40;;;;;;4209331;28;20044;-70
2021/11/17 11:42:37;;;;;;;26.15;13.98;;;16.20;87.40;;;;;;4201361;28;20052;-69
2021/11/17 11:44:46;;;;;;;23.30;13.45;;;16.30;87.30;;;;;;4190795;28;20056;-69
2021/11/17 11:47:26;;;;;;;22.50;13.43;;;16.30;87.40;;;;;;4188090;28;20040;-72
2021/11/17 11:49:35;;;;;;;20.33;13.27;;;16.30;87.40;;;;;;4195060;28;20056;-71
2021/11/17 11:52:06;;;;;;;18.70;12.35;;;16.30;87.30;;;;;;4198464;28;20517;-71
2021/11/17 11:54:14;;;;;;;18.15;12.15;;;16.30;87.20;;;;;;4196540;28;20056;-71
2021/11/17 11:56:28;;;;;;;21.63;12.82;;;16.30;87.20;;;;;;4204247;28;20056;-72
2021/11/17 11:58:38;;;;;;;20.40;12.13;;;16.30;87.20;;;;;;4188546;28;20059;-74
2021/11/17 12:00:41;;;;;;;20.35;13.02;;;16.40;87.30;;;;;;4192695;28;20071;-72
2021/11/17 12:02:51;;;;;;;22.17;12.55;;;16.30;87.20;;;;;;4189078;28;20052;-72
2021/11/17 12:04:57;;;;;;;21.27;12.07;;;16.40;87.20;;;;;;4207496;28;20052;-74
2021/11/17 12:07:06;;;;;;;20.90;12.10;;;16.40;87.30;;;;;;4189691;28;20061;-75
2021/11/17 12:09:25;;;;;;;18.77;12.15;;;16.40;87.30;;;;;;4190289;28;20125;-68
2021/11/17 12:11:31;;;;;;;17.27;11.73;;;16.40;87.30;;;;;;4193552;28;20566;-67
2021/11/17 12:13:37;;;;;;;17.83;11.25;;;16.40;87.20;;;;;;4182498;28;20053;-68
2021/11/17 12:15:58;;;;;;;18.05;10.95;;;16.50;87.20;;;;;;4191645;28;20156;-73
2021/11/17 12:18:19;;;;;;;18.58;10.70;;;16.40;87.10;;;;;;4211235;28;20060;-73
2021/11/17 12:20:28;;;;;;;17.42;11.13;;;16.50;86.90;;;;;;4200543;28;20093;-74
2021/11/17 12:22:41;;;;;;;18.48;11.27;;;16.50;86.80;;;;;;4189257;28;20068;-73
2021/11/17 12:24:47;;;;;;;16.38;10.15;;;16.50;86.80;;;;;;4190674;28;20162;-73
2021/11/17 12:27:01;;;;;;;17.13;10.20;;;16.50;86.70;;;;;;4195298;28;20059;-71
2021/11/17 12:29:09;;;;;;;20.77;10.77;;;16.50;86.70;;;;;;4185410;28;20061;-70
2021/11/17 12:31:19;;;;;;;18.20;10.52;;;16.50;86.50;;;;;;4199352;28;20052;-72
2021/11/17 12:33:30;;;;;;;19.38;11.10;;;16.50;86.30;;;;;;4199732;28;20360;-72
2021/11/17 12:35:45;;;;;;;17.35;10.77;;;16.60;86.30;;;;;;4206906;28;20146;-72
2021/11/17 12:37:53;;;;;;;15.80;9.55;;;16.60;86.10;;;;;;4214940;28;20054;-68
2021/11/17 12:39:58;;;;;;;18.73;11.00;;;16.50;86.10;;;;;;4200301;28;20121;-72
2021/11/17 12:42:04;;;;;;;18.70;10.95;;;16.50;86.10;;;;;;4189227;28;20078;-70
2021/11/17 12:44:09;;;;;;;19.70;10.10;;;16.60;86.10;;;;;;4198556;28;20044;-73
2021/11/17 12:46:20;;;;;;;18.35;9.38;;;16.60;86.00;;;;;;4193429;28;20064;-76
2021/11/17 12:48:26;;;;;;;14.35;9.18;;;16.60;86.00;;;;;;4188872;28;20108;-69
2021/11/17 12:50:32;;;;;;;13.45;7.95;;;16.60;86.20;;;;;;4201282;28;20057;-73
2021/11/17 12:52:40;;;;;;;13.18;8.15;;;16.60;86.80;;;;;;4197279;28;20264;-73
2021/11/17 12:54:48;;;;;;;13.90;7.82;;;16.60;86.90;;;;;;4185169;28;20234;-75
2021/11/17 12:56:54;;;;;;;14.55;7.90;;;16.60;87.60;;;;;;4195379;28;20060;-75
2021/11/17 12:59:00;;;;;;;15.30;7.63;;;16.60;87.10;;;;;;4186369;28;20481;-75
2021/11/17 13:01:31;;;;;;;13.73;7.63;;;16.60;87.20;;;;;;4190238;28;20045;-72
2021/11/17 13:03:37;;;;;;;18.90;8.38;;;16.70;87.60;;;;;;4194341;28;20052;-74
2021/11/17 13:05:43;;;;;;;13.23;7.47;;;16.60;88.50;;;;;;4201645;28;20053;-72
2021/11/17 13:07:50;;;;;;;12.85;7.53;;;16.70;87.90;;;;;;4189570;28;20053;-73
2021/11/17 13:09:59;;;;;;;16.92;7.07;;;16.70;87.80;;;;;;4203528;28;20480;-74
2021/11/17 13:12:17;;;;;;;14.95;6.68;;;16.70;87.50;;;;;;4198648;28;20064;-69
2021/11/17 13:14:27;;;;;;;21.02;6.85;;;16.70;87.40;;;;;;4190378;28;20052;-74
2021/11/17 13:16:37;;;;;;;13.18;6.78;;;16.70;87.40;;;;;;4200164;28;20094;-73
2021/11/17 13:18:52;;;;;;;11.68;6.38;;;16.70;87.20;;;;;;4201892;28;20094;-74
2021/11/17 13:21:06;;;;;;;;;;;16.70;87.00;;;;;;4183190;28;20072;-70
2021/11/17 13:23:33;;;;;;;16.17;6.20;;;16.70;87.50;;;;;;4181040;28;19925;-69
2021/11/17 13:25:49;;;;;;;9.82;5.93;;;16.80;87.70;;;;;;4209941;28;20135;-73
2021/11/17 13:27:54;;;;;;;13.93;6.18;;;16.80;87.60;;;;;;4193961;28;20049;-74
2021/11/17 13:29:59;;;;;;;14.15;6.43;;;16.90;87.60;;;;;;4184300;28;20053;-70
2021/11/17 13:32:24;;;;;;;12.80;6.00;;;17.00;87.50;;;;;;4190534;28;20411;-71
2021/11/17 13:34:31;;;;;;;10.48;6.05;;;17.00;87.20;;;;;;4196010;28;20055;-68
2021/11/17 13:36:41;;;;;;;9.85;5.70;;;17.00;87.20;;;;;;4197784;28;20052;-68
2021/11/17 13:38:56;;;;;;;12.68;6.07;;;16.90;86.90;;;;;;4187135;28;20098;-72
2021/11/17 13:41:14;;;;;;;12.63;6.28;;;17.00;86.60;;;;;;4195964;28;20048;-67
2021/11/17 13:43:18;;;;;;;13.35;5.88;;;17.00;86.40;;;;;;4201817;28;20058;-68
2021/11/17 13:45:27;;;;;;;13.25;6.55;;;16.90;86.50;;;;;;4189376;28;20055;-73
2021/11/17 13:47:31;;;;;;;21.35;7.47;;;17.00;86.60;;;;;;4192325;28;20054;-70